createdAt,value
2018-02-15T00:01:55.930Z,7.67
2018-02-15T00:06:54.398Z,7.60
2018-02-15T00:09:23.607Z,7.47
2018-02-15T00:11:52.887Z,7.33
2018-02-15T00:14:21.862Z,8.40
2018-02-15T00:16:50.917Z,9.57
2018-02-15T00:21:49.013Z,7.40
2018-02-15T00:29:12.811Z,5.77
2018-02-15T00:31:42.391Z,6.37
2018-02-15T00:34:12.654Z,6.10
2018-02-15T00:36:41.761Z,6.40
2018-02-15T00:39:10.745Z,5.40
2018-02-15T00:41:40.041Z,4.47
2018-02-15T00:49:06.749Z,7.17
2018-02-15T00:51:35.799Z,6.60
2018-02-15T00:54:04.815Z,5.23
2018-02-15T00:56:33.952Z,6.03
2018-02-15T01:01:32.346Z,5.30
2018-02-15T01:04:01.887Z,5.10
2018-02-15T01:06:30.907Z,5.97
2018-02-15T01:11:29.386Z,5.30
2018-02-15T01:16:27.468Z,5.50
2018-02-15T01:18:56.790Z,5.13
2018-02-15T01:21:26.227Z,3.67
2018-02-15T01:23:55.606Z,4.67
2018-02-15T01:26:25.006Z,4.93
2018-02-15T01:31:23.880Z,5.87
2018-02-15T01:33:53.502Z,5.47
2018-02-15T01:36:22.910Z,5.33
2018-02-15T01:41:20.784Z,4.80
2018-02-15T01:43:49.977Z,5.67
2018-02-15T01:48:49.475Z,4.73
2018-02-15T01:51:19.489Z,5.67
2018-02-15T01:53:49.505Z,4.43
2018-02-15T01:56:19.418Z,4.83
2018-02-15T01:58:48.821Z,3.87
2018-02-15T02:01:18.329Z,3.67
2018-02-15T02:03:47.884Z,4.60
2018-02-15T02:06:17.447Z,4.50
2018-02-15T02:08:46.894Z,3.80
2018-02-15T02:16:13.891Z,3.90
2018-02-15T02:18:42.916Z,4.43
2018-02-15T02:21:12.229Z,4.00
2018-02-15T02:23:41.807Z,5.07
2018-02-15T02:26:10.870Z,4.60
2018-02-15T02:35:55.705Z,3.50
2018-02-15T02:38:25.447Z,4.50
2018-02-15T02:40:55.373Z,2.83
2018-02-15T02:43:24.885Z,3.77
2018-02-15T02:45:54.232Z,3.60
2018-02-15T02:48:24.214Z,4.03
2018-02-15T02:50:53.997Z,4.20
2018-02-15T02:53:23.474Z,3.60
2018-02-15T02:55:53.429Z,4.20
2018-02-15T02:58:22.920Z,3.73
2018-02-15T03:03:21.734Z,3.90
2018-02-15T03:05:50.887Z,3.73
2018-02-15T03:08:20.594Z,4.10
2018-02-15T03:10:49.719Z,4.37
2018-02-15T03:13:19.453Z,3.57
2018-02-15T03:15:48.901Z,3.20
2018-02-15T03:18:18.684Z,3.30
2018-02-15T03:20:48.301Z,3.40
2018-02-15T03:23:18.488Z,3.53
2018-02-15T03:25:47.882Z,3.87
2018-02-15T03:29:54.763Z,3.67
2018-02-15T03:32:24.486Z,3.70
2018-02-15T03:34:54.523Z,3.33
2018-02-15T03:37:24.387Z,4.20
2018-02-15T03:39:54.186Z,3.27
2018-02-15T03:42:23.931Z,3.73
2018-02-15T03:49:52.458Z,3.40
2018-02-15T03:52:22.207Z,3.47
2018-02-15T03:54:51.950Z,3.50
2018-02-15T04:01:27.727Z,3.30
2018-02-15T04:03:57.049Z,3.20
2018-02-15T04:06:26.926Z,3.30
2018-02-15T04:11:25.194Z,3.20
2018-02-15T04:13:54.808Z,4.13
2018-02-15T04:16:24.479Z,4.47
2018-02-15T04:18:53.804Z,3.13
2018-02-15T04:21:23.466Z,2.83
2018-02-15T04:23:52.726Z,3.37
2018-02-15T04:26:21.928Z,2.97
2018-02-15T04:31:36.678Z,2.93
2018-02-15T04:34:06.346Z,3.10
2018-02-15T04:36:35.779Z,3.97
2018-02-15T04:39:04.934Z,3.83
2018-02-15T04:44:03.397Z,3.77
2018-02-15T04:46:33.071Z,3.20
2018-02-15T04:51:31.381Z,3.80
2018-02-15T04:54:01.202Z,3.00
2018-02-15T04:56:30.513Z,3.40
2018-02-15T04:58:59.760Z,4.00
2018-02-15T05:01:28.927Z,3.30
2018-02-15T05:06:27.060Z,3.37
2018-02-15T05:11:24.883Z,3.20
2018-02-15T05:17:52.906Z,2.90
2018-02-15T05:24:09.912Z,2.90
2018-02-15T05:31:35.874Z,3.10
2018-02-15T05:34:04.838Z,3.60
2018-02-15T05:36:34.493Z,3.30
2018-02-15T05:39:03.674Z,3.57
2018-02-15T05:41:32.829Z,3.37
2018-02-15T05:44:02.199Z,3.47
2018-02-15T05:46:31.213Z,2.90
2018-02-15T05:49:01.259Z,5.30
2018-02-15T05:51:30.638Z,2.93
2018-02-15T05:53:59.815Z,4.00
2018-02-15T05:56:29.197Z,4.43
2018-02-15T05:58:58.681Z,3.00
2018-02-15T06:01:28.192Z,4.27
2018-02-15T06:03:57.815Z,3.47
2018-02-15T06:06:27.205Z,3.47
2018-02-15T06:08:56.912Z,2.90
2018-02-15T06:13:55.222Z,3.23
2018-02-15T06:16:24.946Z,2.67
2018-02-15T06:21:23.075Z,2.70
2018-02-15T06:28:50.335Z,3.87
2018-02-15T06:31:19.778Z,3.57
2018-02-15T06:33:49.364Z,4.03
2018-02-15T06:36:19.270Z,3.70
2018-02-15T06:38:49.169Z,3.80
2018-02-15T06:41:18.792Z,3.97
2018-02-15T06:43:48.171Z,3.77
2018-02-15T06:46:17.369Z,3.70
2018-02-15T06:48:46.751Z,4.30
2018-02-15T06:51:16.369Z,3.60
2018-02-15T06:53:46.365Z,4.10
2018-02-15T06:56:15.896Z,4.50
2018-02-15T06:58:45.418Z,4.13
2018-02-15T07:01:14.910Z,4.40
2018-02-15T07:06:13.229Z,7.70
2018-02-15T07:09:18.173Z,9.63
2018-02-15T07:14:17.372Z,8.67
2018-02-15T07:16:47.239Z,9.07
2018-02-15T07:21:46.819Z,7.30
2018-02-15T07:24:16.434Z,6.73
2018-02-15T07:26:46.457Z,6.40
2018-02-15T07:29:16.225Z,7.83
2018-02-15T07:31:45.724Z,6.60
2018-02-15T07:34:15.451Z,6.07
2018-02-15T07:36:45.778Z,7.30
2018-02-15T07:39:15.235Z,6.43
2018-02-15T07:41:44.881Z,8.60
2018-02-15T07:44:13.919Z,9.83
2018-02-15T07:49:12.437Z,9.10
2018-02-15T07:51:41.744Z,8.67
2018-02-15T07:54:11.450Z,6.83
2018-02-15T07:56:41.188Z,7.70
2018-02-15T07:59:10.909Z,7.10
2018-02-15T08:04:09.364Z,7.30
2018-02-15T08:06:38.918Z,8.27
2018-02-15T08:15:15.909Z,21.87
2018-02-15T08:20:13.697Z,24.47
2018-02-15T08:22:42.796Z,19.23
2018-02-15T08:25:12.460Z,14.73
2018-02-15T08:27:41.896Z,19.50
2018-02-15T08:30:11.557Z,15.07
2018-02-15T08:32:41.220Z,13.90
2018-02-15T08:37:39.230Z,13.27
2018-02-15T08:40:08.738Z,13.77
2018-02-15T08:42:37.936Z,13.07
2018-02-15T08:47:36.394Z,24.03
2018-02-15T08:50:06.215Z,19.87
2018-02-15T08:52:35.816Z,19.45
2018-02-15T08:55:04.925Z,18.70
2018-02-15T09:00:03.073Z,25.43
2018-02-15T09:06:17.887Z,27.03
2018-02-15T09:08:47.589Z,22.53
2018-02-15T09:11:16.938Z,28.80
2018-02-15T09:16:03.930Z,25.77
2018-02-15T09:21:02.431Z,24.90
2018-02-15T09:23:31.681Z,27.10
2018-02-15T09:26:00.799Z,24.97
2018-02-15T09:28:30.202Z,21.00
2018-02-15T09:30:59.956Z,20.00
2018-02-15T09:37:28.179Z,16.80
2018-02-15T09:39:57.694Z,14.20
2018-02-15T09:42:26.898Z,14.03
2018-02-15T09:44:56.205Z,13.40
2018-02-15T09:49:11.986Z,12.67
2018-02-15T09:51:40.891Z,9.25
2018-02-15T09:54:10.334Z,9.10
2018-02-15T10:00:24.501Z,8.93
2018-02-15T10:05:31.411Z,8.63
2018-02-15T10:10:29.432Z,8.97
2018-02-15T10:13:00.725Z,8.73
2018-02-15T10:15:29.771Z,8.87
2018-02-15T10:17:59.229Z,8.30
2018-02-15T10:20:28.457Z,9.27
2018-02-15T10:22:57.710Z,11.27
2018-02-15T10:25:26.788Z,11.60
2018-02-15T10:27:55.769Z,11.33
2018-02-15T10:30:24.767Z,11.17
2018-02-15T10:32:53.996Z,11.10
2018-02-15T10:37:52.199Z,12.97
2018-02-15T10:40:21.978Z,12.10
2018-02-15T10:42:51.475Z,11.20
2018-02-15T10:45:21.183Z,10.47
2018-02-15T10:50:19.061Z,10.40
2018-02-15T10:55:16.799Z,9.27
2018-02-15T10:57:46.413Z,9.53
2018-02-15T11:00:16.649Z,8.30
2018-02-15T11:02:45.881Z,9.00
2018-02-15T11:08:48.507Z,18.83
2018-02-15T11:13:07.897Z,29.57
2018-02-15T11:18:05.774Z,32.53
2018-02-15T11:20:34.800Z,32.03
2018-02-15T11:23:03.826Z,31.07
2018-02-15T11:25:33.204Z,28.87
2018-02-15T11:28:03.423Z,25.85
2018-02-15T11:30:32.816Z,24.93
2018-02-15T11:33:01.883Z,22.10
2018-02-15T11:35:31.195Z,22.50
2018-02-15T11:38:00.560Z,20.80
2018-02-15T11:40:30.715Z,21.10
2018-02-15T11:42:59.864Z,20.93
2018-02-15T11:45:29.219Z,21.00
2018-02-15T11:47:58.784Z,19.77
2018-02-15T11:50:27.795Z,20.10
2018-02-15T11:52:56.806Z,18.87
2018-02-15T11:55:25.929Z,19.73
2018-02-15T12:00:24.421Z,18.30
2018-02-15T12:06:39.432Z,16.53
2018-02-15T12:09:09.201Z,16.27
2018-02-15T12:11:38.664Z,16.83
2018-02-15T12:14:07.872Z,17.37
2018-02-15T12:16:37.613Z,16.63
2018-02-15T12:19:07.226Z,16.83
2018-02-15T12:21:36.644Z,16.07
2018-02-15T12:24:06.589Z,16.30
2018-02-15T12:26:36.044Z,15.77
2018-02-15T12:31:34.346Z,16.73
2018-02-15T12:34:03.905Z,15.37
2018-02-15T12:36:33.379Z,14.70
2018-02-15T12:39:03.406Z,14.57
2018-02-15T12:41:33.208Z,14.47
2018-02-15T12:44:03.271Z,13.37
2018-02-15T12:46:32.908Z,13.93
2018-02-15T12:51:31.464Z,14.60
2018-02-15T12:54:01.508Z,14.60
2018-02-15T12:59:13.211Z,13.83
2018-02-15T13:01:42.779Z,13.75
2018-02-15T13:06:06.864Z,13.67
2018-02-15T13:08:36.372Z,13.07
2018-02-15T13:11:06.379Z,13.03
2018-02-15T13:13:35.937Z,12.73
2018-02-15T13:18:40.180Z,13.33
2018-02-15T13:21:10.194Z,12.70
2018-02-15T13:23:39.559Z,12.67
2018-02-15T13:26:08.789Z,12.63
2018-02-15T13:28:39.506Z,12.23
2018-02-15T13:31:08.806Z,11.67
2018-02-15T13:33:37.816Z,13.10
2018-02-15T13:36:07.225Z,12.77
2018-02-15T13:38:36.816Z,12.00
2018-02-15T13:41:05.819Z,12.63
2018-02-15T13:43:34.801Z,11.77
2018-02-15T13:48:13.792Z,11.13
2018-02-15T13:51:14.776Z,14.60
2018-02-15T13:53:43.861Z,15.97
2018-02-15T13:56:13.507Z,15.33
2018-02-15T13:58:42.814Z,15.17
2018-02-15T14:01:12.337Z,15.77
2018-02-15T14:03:41.875Z,15.40
2018-02-15T14:06:53.492Z,14.90
2018-02-15T14:09:23.404Z,15.87
2018-02-15T14:11:52.916Z,15.27
2018-02-15T14:16:51.262Z,13.70
2018-02-15T14:19:21.231Z,12.97
2018-02-15T14:22:09.919Z,13.87
2018-02-15T14:27:08.334Z,12.90
2018-02-15T14:29:37.812Z,12.10
2018-02-15T14:32:07.484Z,11.17
2018-02-15T14:34:36.833Z,11.73
2018-02-15T14:37:06.330Z,11.20
2018-02-15T14:39:35.904Z,11.63
2018-02-15T14:45:52.764Z,11.43
2018-02-15T14:48:21.692Z,10.97
2018-02-15T14:50:50.817Z,10.67
2018-02-15T14:53:19.867Z,11.33
2018-02-15T14:55:48.732Z,10.73
2018-02-15T14:58:17.817Z,10.37
2018-02-15T15:00:46.716Z,9.87
2018-02-15T15:03:16.361Z,10.13
2018-02-15T15:05:45.790Z,9.70
2018-02-15T15:08:14.878Z,9.33
2018-02-15T15:10:43.855Z,9.33
2018-02-15T15:14:34.398Z,9.30
2018-02-15T15:19:41.505Z,9.50
2018-02-15T15:22:10.744Z,9.40
2018-02-15T15:24:39.745Z,8.70
2018-02-15T15:27:08.774Z,9.10
2018-02-15T15:29:37.803Z,9.07
2018-02-15T15:32:06.808Z,8.40
2018-02-15T15:34:35.724Z,9.80
2018-02-15T15:37:04.893Z,9.40
2018-02-15T15:40:00.532Z,8.40
2018-02-15T15:42:30.402Z,8.53
2018-02-15T15:44:59.781Z,7.83
2018-02-15T15:50:55.193Z,8.60
2018-02-15T15:53:24.560Z,7.97
2018-02-15T15:55:53.874Z,8.73
2018-02-15T15:58:22.926Z,7.97
2018-02-15T16:03:21.008Z,8.60
2018-02-15T16:08:19.049Z,7.90
2018-02-15T16:13:16.871Z,8.03
2018-02-15T16:15:46.465Z,8.50
2018-02-15T16:18:15.944Z,7.90
2018-02-15T16:23:13.872Z,8.20
2018-02-15T16:25:43.191Z,7.93
2018-02-15T16:28:13.199Z,7.50
2018-02-15T16:30:42.577Z,7.80
2018-02-15T16:33:12.201Z,8.13
2018-02-15T16:35:41.805Z,7.00
2018-02-15T16:38:11.189Z,7.97
2018-02-15T16:40:40.921Z,7.20
2018-02-15T16:46:06.253Z,6.97
2018-02-15T16:48:35.608Z,6.80
2018-02-15T16:51:05.361Z,7.13
2018-02-15T16:53:34.761Z,7.13
2018-02-15T16:56:04.258Z,6.97
2018-02-15T16:58:33.881Z,7.30
2018-02-15T17:01:03.344Z,6.90
2018-02-15T17:03:32.888Z,7.13
2018-02-15T17:06:01.815Z,7.97
2018-02-15T17:08:30.961Z,9.00
2018-02-15T17:13:29.221Z,11.70
2018-02-15T17:15:58.682Z,13.30
2018-02-15T17:18:28.228Z,12.97
2018-02-15T17:20:57.633Z,12.97
2018-02-15T17:23:26.795Z,14.17
2018-02-15T17:25:56.219Z,15.33
2018-02-15T17:28:25.556Z,13.97
2018-02-15T17:30:54.827Z,14.30
2018-02-15T17:33:24.006Z,15.33
2018-02-15T17:38:21.969Z,15.20
2018-02-15T17:42:17.930Z,16.47
2018-02-15T17:47:16.643Z,16.70
2018-02-15T17:52:22.646Z,20.70
2018-02-15T17:54:51.936Z,21.90
2018-02-15T17:59:23.931Z,21.83
2018-02-15T18:04:27.245Z,20.10
2018-02-15T18:07:49.786Z,18.13
2018-02-15T18:11:47.903Z,16.73
2018-02-15T18:16:46.193Z,16.70
2018-02-15T18:19:15.929Z,15.73
2018-02-15T18:22:20.807Z,16.17
2018-02-15T18:24:50.224Z,15.00
2018-02-15T18:27:20.206Z,15.53
2018-02-15T18:29:49.591Z,14.75
2018-02-15T18:32:18.904Z,15.23
2018-02-15T18:34:48.326Z,14.80
2018-02-15T18:37:18.260Z,14.03
2018-02-15T18:39:47.927Z,14.17
2018-02-15T18:44:46.240Z,13.70
2018-02-15T18:50:37.668Z,16.33
2018-02-15T18:53:07.469Z,17.00
2018-02-15T18:55:37.195Z,17.03
2018-02-15T18:58:06.565Z,15.73
2018-02-15T19:00:36.214Z,15.27
2018-02-15T19:03:05.719Z,15.35
2018-02-15T19:05:34.813Z,14.40
2018-02-15T19:08:04.343Z,14.17
2018-02-15T19:10:33.928Z,14.67
2018-02-15T19:15:31.719Z,14.23
2018-02-15T19:18:00.900Z,13.80
2018-02-15T19:20:29.899Z,13.30
2018-02-15T19:22:59.230Z,13.90
2018-02-15T19:25:28.880Z,15.77
2018-02-15T19:27:58.215Z,14.00
2018-02-15T19:30:27.224Z,14.00
2018-02-15T19:32:56.633Z,14.70
2018-02-15T19:35:26.012Z,13.83
2018-02-15T19:40:24.232Z,13.33
2018-02-15T19:42:53.654Z,13.23
2018-02-15T19:45:22.924Z,12.83
2018-02-15T19:50:21.208Z,11.70
2018-02-15T19:52:50.807Z,11.97
2018-02-15T19:55:19.825Z,11.37
2018-02-15T19:57:49.378Z,11.97
2018-02-15T20:00:18.662Z,11.03
2018-02-15T20:02:48.393Z,11.50
2018-02-15T20:05:17.906Z,10.97
2018-02-15T20:10:15.813Z,10.67
2018-02-15T20:12:44.896Z,10.80
2018-02-15T20:17:43.481Z,12.30
2018-02-15T20:20:24.760Z,14.20
2018-02-15T20:22:54.185Z,14.47
2018-02-15T20:25:23.604Z,14.50
2018-02-15T20:27:58.707Z,13.07
2018-02-15T20:34:59.369Z,11.27
2018-02-15T20:37:34.746Z,12.67
2018-02-15T20:40:09.741Z,11.07
2018-02-15T20:44:18.208Z,11.10
2018-02-15T20:46:47.504Z,11.60
2018-02-15T20:49:22.789Z,10.47
2018-02-15T20:51:57.628Z,10.53
2018-02-15T20:54:32.735Z,10.07
2018-02-15T20:57:01.893Z,10.33
2018-02-15T20:59:31.381Z,10.45
2018-02-15T21:02:00.587Z,10.50
2018-02-15T21:04:29.669Z,9.77
2018-02-15T21:09:16.860Z,9.00
2018-02-15T21:13:07.802Z,8.70
2018-02-15T21:15:37.428Z,8.33
2018-02-15T21:18:07.176Z,9.43
2018-02-15T21:20:36.394Z,8.95
2018-02-15T21:23:06.183Z,9.00
2018-02-15T21:25:35.649Z,9.00
2018-02-15T21:28:04.917Z,8.00
2018-02-15T21:33:04.357Z,8.47
2018-02-15T21:35:33.693Z,8.83
2018-02-15T21:38:03.325Z,8.77
2018-02-15T21:40:32.566Z,7.60
2018-02-15T21:43:01.916Z,7.33
2018-02-15T21:50:28.931Z,7.70
2018-02-15T21:55:27.469Z,6.80
2018-02-15T21:57:56.821Z,7.33
2018-02-15T22:02:05.715Z,6.83
2018-02-15T22:04:34.789Z,7.67
2018-02-15T22:07:03.925Z,6.73
2018-02-15T22:12:01.818Z,7.10
2018-02-15T22:14:30.918Z,7.17
2018-02-15T22:22:10.734Z,12.53
2018-02-15T22:24:39.741Z,11.13
2018-02-15T22:27:08.752Z,10.30
2018-02-15T22:29:37.691Z,10.47
2018-02-15T22:32:06.696Z,9.70
2018-02-15T22:34:35.699Z,9.37
2018-02-15T22:37:04.726Z,9.23
2018-02-15T22:39:33.705Z,8.97
2018-02-15T22:42:02.651Z,9.80
2018-02-15T22:44:31.721Z,8.03
2018-02-15T22:47:00.931Z,8.90
2018-02-15T22:51:58.969Z,8.07
2018-02-15T22:56:57.227Z,7.20
2018-02-15T22:59:26.755Z,6.80
2018-02-15T23:01:56.344Z,7.23
2018-02-15T23:04:25.743Z,7.20
2018-02-15T23:06:56.421Z,6.73
2018-02-15T23:09:25.683Z,6.37
2018-02-15T23:11:55.443Z,7.10
2018-02-15T23:14:25.213Z,6.50
2018-02-15T23:16:54.683Z,6.73
2018-02-15T23:21:47.795Z,7.00
2018-02-15T23:24:17.517Z,6.60
2018-02-15T23:26:47.449Z,5.90
2018-02-15T23:29:16.805Z,6.20
2018-02-15T23:31:46.362Z,6.50
2018-02-15T23:34:16.184Z,5.87
2018-02-15T23:36:45.619Z,6.03
2018-02-15T23:39:15.391Z,5.47
2018-02-15T23:41:45.417Z,5.90
2018-02-15T23:44:15.424Z,6.20
2018-02-15T23:49:16.479Z,5.37
2018-02-15T23:51:45.690Z,5.60
2018-02-15T23:54:15.015Z,8.87
2018-02-15T23:59:12.883Z,8.83
